Time;durP1;ratioP1;P1;durP2;ratioP2;P2;SDS_P1;SDS_P2;PMS_P1;PMS_P2;Temp;Humidity;BMP_temperature;BMP_pressure;BME280_temperature;BME280_humidity;BME280_pressure;Samples;Min_cycle;Max_cycle;Signal;HPM_P1;HPM_P2
2023/06/24 00:03:46;;;;;;;5.20;4.70;;;;;;;17.98;73.40;99988.36;218094;1257;139760;-69
2023/06/24 00:09:00;;;;;;;5.00;4.50;;;;;;;17.98;73.34;99993.05;218671;1257;140755;-68
2023/06/24 00:14:06;;;;;;;4.80;4.40;;;;;;;17.97;73.28;99995.97;217989;1257;140217;-68
2023/06/24 00:19:11;;;;;;;5.20;4.30;;;;;;;17.95;73.32;99995.81;219351;1256;140835;-69
2023/06/24 00:24:15;;;;;;;5.00;4.60;;;;;;;17.93;73.49;100003.70;218083;1257;140545;-68
2023/06/24 00:29:19;;;;;;;4.70;4.30;;;;;;;17.85;73.49;100006.41;217713;1256;139776;-68
2023/06/24 00:34:23;;;;;;;5.80;4.70;;;;;;;17.79;73.50;100010.27;218686;1256;140422;-70
2023/06/24 00:39:28;;;;;;;6.00;5.40;;;;;;;17.76;73.77;100014.10;218359;1257;139884;-69
2023/06/24 00:44:33;;;;;;;6.30;4.80;;;;;;;17.74;73.84;100014.80;217442;1257;141090;-68
2023/06/24 00:49:37;;;;;;;10.80;5.50;;;;;;;17.69;73.86;100024.38;218279;1255;139703;-69
2023/06/24 00:54:43;;;;;;;7.30;4.50;;;;;;;17.63;74.16;100027.19;217623;1258;140581;-69
2023/06/24 00:59:53;;;;;;;6.60;5.20;;;;;;;17.57;74.61;100027.02;218434;1256;139687;-68
2023/06/24 01:04:58;;;;;;;6.30;4.90;;;;;;;17.46;75.03;100021.70;217530;1254;140125;-68
2023/06/24 01:10:07;;;;;;;8.30;5.30;;;;;;;17.37;75.34;100015.17;217950;1254;141935;-69
2023/06/24 01:15:12;;;;;;;6.20;5.30;;;;;;;17.27;75.97;100011.94;219156;1254;140180;-67
2023/06/24 01:20:46;;;;;;;7.00;5.30;;;;;;;17.24;76.43;100007.09;217811;1255;140863;-67
2023/06/24 01:26:29;;;;;;;5.70;4.90;;;;;;;17.15;76.55;100009.85;219588;1256;140202;-67
2023/06/24 01:31:40;;;;;;;5.80;5.20;;;;;;;17.08;77.10;100015.16;219801;1255;140076;-68
2023/06/24 01:37:10;;;;;;;8.90;6.50;;;;;;;17.07;77.35;100017.74;218517;1255;140071;-67
2023/06/24 01:42:17;;;;;;;6.70;5.10;;;;;;;17.03;77.45;100028.13;220668;1255;142388;-69
2023/06/24 01:47:26;;;;;;;8.10;6.30;;;;;;;16.95;77.68;100030.83;220573;1254;140150;-68
2023/06/24 01:52:34;;;;;;;11.00;5.70;;;;;;;16.93;78.03;100034.21;220467;1255;140366;-68
2023/06/24 01:57:41;;;;;;;10.30;7.10;;;;;;;16.91;78.21;100038.30;219514;1255;140583;-66
2023/06/24 02:02:46;;;;;;;7.30;6.60;;;;;;;16.91;78.55;100044.11;219627;1254;139815;-68
2023/06/24 02:07:53;;;;;;;10.80;7.70;;;;;;;16.90;78.79;100049.77;217986;1257;139483;-67
2023/06/24 02:12:59;;;;;;;6.90;6.30;;;;;;;16.90;79.24;100058.11;220054;1256;140541;-68
2023/06/24 02:18:07;;;;;;;10.60;7.50;;;;;;;16.91;79.39;100064.41;217912;1255;140077;-66
2023/06/24 02:23:12;;;;;;;8.70;7.70;;;;;;;16.92;79.60;100066.30;219314;1256;139598;-66
2023/06/24 02:28:18;;;;;;;9.30;8.10;;;;;;;16.94;80.01;100067.92;218649;1254;140140;-66
2023/06/24 02:33:24;;;;;;;10.10;8.60;;;;;;;16.98;80.22;100073.42;218236;1253;139993;-63
2023/06/24 02:38:29;;;;;;;13.70;9.20;;;;;;;16.97;80.39;100080.21;218528;1257;139868;-63
2023/06/24 02:43:35;;;;;;;8.20;7.30;;;;;;;16.97;80.83;100091.41;218526;1254;140848;-66
2023/06/24 02:48:41;;;;;;;9.50;7.90;;;;;;;16.99;81.17;100094.54;218185;1254;140364;-65
2023/06/24 02:53:48;;;;;;;9.30;7.20;;;;;;;17.00;81.39;100094.70;218139;1256;141426;-67
2023/06/24 02:58:54;;;;;;;10.40;9.20;;;;;;;17.02;81.59;100097.14;218119;1254;139880;-68
2023/06/24 03:03:57;;;;;;;11.90;9.50;;;;;;;17.06;81.79;100098.21;219381;1254;140382;-69
2023/06/24 03:09:03;;;;;;;11.40;9.40;;;;;;;17.09;81.85;100100.97;218413;1259;141982;-68
2023/06/24 03:14:08;;;;;;;13.60;10.30;;;;;;;17.11;81.92;100106.73;217854;1256;142036;-68
2023/06/24 03:19:12;;;;;;;11.50;10.30;;;;;;;17.11;82.04;100113.52;218486;1257;151574;-68
2023/06/24 03:24:16;;;;;;;13.50;10.00;;;;;;;17.13;82.31;100118.29;217903;1254;139907;-68
2023/06/24 03:29:21;;;;;;;14.50;10.00;;;;;;;17.14;82.33;100125.89;220942;1254;140891;-68
2023/06/24 03:34:26;;;;;;;18.60;11.80;;;;;;;17.16;82.51;100127.94;218625;1254;140459;-69
2023/06/24 03:39:31;;;;;;;15.70;11.20;;;;;;;17.20;82.84;100131.13;220549;1254;140619;-68
2023/06/24 03:44:35;;;;;;;13.90;10.40;;;;;;;17.25;82.78;100134.69;220772;1254;141393;-68
2023/06/24 03:49:40;;;;;;;11.30;9.70;;;;;;;17.31;82.98;100133.67;220740;1254;141305;-68
2023/06/24 03:54:44;;;;;;;11.40;10.00;;;;;;;17.35;83.01;100138.91;219845;1254;141031;-68
2023/06/24 03:59:48;;;;;;;13.10;10.80;;;;;;;17.39;83.07;100136.48;220137;1254;140717;-68
2023/06/24 04:04:53;;;;;;;11.40;9.70;;;;;;;17.44;83.25;100135.45;219952;1254;140685;-67
2023/06/24 04:09:57;;;;;;;17.80;12.40;;;;;;;17.45;83.22;100130.91;219108;1254;140232;-68
2023/06/24 04:15:07;;;;;;;16.50;11.80;;;;;;;17.47;83.44;100130.20;219001;1254;140214;-67
2023/06/24 04:20:12;;;;;;;12.70;11.40;;;;;;;17.49;83.63;100125.84;217862;1254;140375;-67
2023/06/24 04:25:17;;;;;;;12.30;10.60;;;;;;;17.52;83.77;100128.16;218986;1258;140090;-68
2023/06/24 04:30:27;;;;;;;13.40;12.00;;;;;;;17.54;84.01;100133.50;218495;1257;142436;-67
2023/06/24 04:35:33;;;;;;;15.40;11.80;;;;;;;17.59;84.28;100140.52;218446;1254;140527;-67
2023/06/24 04:40:40;;;;;;;15.10;11.60;;;;;;;17.64;84.38;100148.07;218243;1254;140036;-68
2023/06/24 04:45:45;;;;;;;13.50;11.70;;;;;;;17.67;84.28;100151.11;218783;1254;140178;-69
2023/06/24 04:50:49;;;;;;;13.20;11.90;;;;;;;17.68;84.41;100153.05;218691;1254;139916;-69
2023/06/24 04:55:54;;;;;;;17.50;12.70;;;;;;;17.70;84.61;100155.42;218885;1256;140335;-68
2023/06/24 05:00:58;;;;;;;13.00;11.60;;;;;;;17.79;84.68;100160.52;218400;1254;140190;-68
2023/06/24 05:06:08;;;;;;;13.80;11.50;;;;;;;17.88;84.77;100170.77;218487;1254;142319;-68
2023/06/24 05:11:14;;;;;;;14.40;12.20;;;;;;;17.98;84.76;100177.45;218273;1254;140267;-69
2023/06/24 05:16:19;;;;;;;17.70;14.10;;;;;;;18.04;84.92;100186.41;219234;1254;141055;-69
2023/06/24 05:21:25;;;;;;;15.60;13.60;;;;;;;18.07;84.96;100195.20;219483;1254;141465;-68
2023/06/24 05:26:30;;;;;;;15.20;13.50;;;;;;;18.12;84.83;100208.95;218900;1254;140435;-68
2023/06/24 05:31:35;;;;;;;17.30;13.00;;;;;;;18.14;84.72;100207.34;218144;1254;142166;-68
2023/06/24 05:36:39;;;;;;;14.20;10.90;;;;;;;18.17;84.85;100208.20;220187;1254;140285;-69
2023/06/24 05:41:45;;;;;;;12.40;11.20;;;;;;;18.24;84.90;100208.56;220576;1255;140528;-68
2023/06/24 05:46:55;;;;;;;15.40;11.70;;;;;;;18.32;84.86;100210.11;220669;1254;140580;-69
2023/06/24 05:52:00;;;;;;;12.20;10.60;;;;;;;18.42;84.65;100211.80;218857;1254;141825;-69
2023/06/24 05:57:06;;;;;;;14.10;12.70;;;;;;;18.51;84.47;100212.53;220043;1254;140172;-68
2023/06/24 06:02:10;;;;;;;15.20;10.90;;;;;;;18.59;84.24;100220.73;220815;1254;141256;-69
2023/06/24 06:07:15;;;;;;;15.70;12.10;;;;;;;18.65;83.78;100230.86;218347;1258;140160;-68
2023/06/24 06:12:20;;;;;;;12.60;10.30;;;;;;;18.70;83.36;100234.35;219228;1254;140344;-68
2023/06/24 06:17:26;;;;;;;14.00;10.50;;;;;;;18.73;83.15;100245.30;218322;1254;140191;-69
2023/06/24 06:22:37;;;;;;;16.40;11.50;;;;;;;18.71;82.90;100246.71;218124;1255;140253;-68
2023/06/24 06:27:43;;;;;;;13.70;11.20;;;;;;;18.71;82.93;100250.50;219277;1254;141171;-69
2023/06/24 06:32:49;;;;;;;12.30;10.80;;;;;;;18.77;83.07;100254.38;218047;1255;142265;-68
2023/06/24 06:37:54;;;;;;;17.60;10.40;;;;;;;18.80;82.88;100257.60;218558;1254;141181;-68
2023/06/24 06:43:00;;;;;;;12.40;10.30;;;;;;;18.88;82.85;100254.55;218061;1254;141231;-68
2023/06/24 06:48:07;;;;;;;10.70;9.70;;;;;;;19.03;82.87;100254.73;218297;1254;140452;-69
2023/06/24 06:53:13;;;;;;;12.20;10.90;;;;;;;19.21;82.72;100263.36;218083;1254;139910;-68
2023/06/24 06:58:21;;;;;;;14.10;10.50;;;;;;;19.28;82.50;100267.52;217926;1254;139842;-68
2023/06/24 07:03:28;;;;;;;11.70;10.60;;;;;;;19.29;82.10;100272.05;219365;1258;141684;-68
2023/06/24 07:08:35;;;;;;;12.40;10.90;;;;;;;19.33;81.74;100271.11;218973;1256;141132;-68
2023/06/24 07:13:40;;;;;;;11.60;9.50;;;;;;;19.41;81.61;100271.89;218872;1258;140358;-68
2023/06/24 07:18:45;;;;;;;11.20;9.90;;;;;;;19.40;81.22;100270.76;218966;1254;139960;-68
2023/06/24 07:23:50;;;;;;;10.10;8.30;;;;;;;19.38;80.71;100269.73;219247;1254;141335;-68
2023/06/24 07:28:58;;;;;;;12.00;8.60;;;;;;;19.29;79.81;100270.33;219341;1254;140199;-68
2023/06/24 07:34:13;;;;;;;10.20;8.30;;;;;;;19.21;79.39;100273.52;220687;1256;140508;-69
2023/06/24 07:39:18;;;;;;;8.20;7.30;;;;;;;19.21;79.08;100279.04;219623;1254;139827;-68
2023/06/24 07:44:22;;;;;;;8.60;7.10;;;;;;;19.22;78.81;100286.55;219316;1254;141385;-69
2023/06/24 07:49:27;;;;;;;16.30;8.00;;;;;;;19.24;78.97;100292.21;219003;1254;139969;-68
2023/06/24 07:54:33;;;;;;;8.90;7.10;;;;;;;19.28;78.83;100296.39;219021;1257;140332;-68
2023/06/24 07:59:39;;;;;;;9.10;7.70;;;;;;;19.35;78.85;100295.55;218840;1254;140524;-69
2023/06/24 08:04:47;;;;;;;10.30;8.30;;;;;;;19.40;78.64;100294.39;218857;1258;139968;-68
2023/06/24 08:09:53;;;;;;;10.20;7.90;;;;;;;19.43;78.59;100294.91;219717;1254;141399;-68
2023/06/24 08:14:59;;;;;;;11.20;7.70;;;;;;;19.57;78.80;100300.52;218240;1254;139894;-68
2023/06/24 08:20:05;;;;;;;7.60;6.80;;;;;;;19.76;78.75;100303.55;219114;1254;152939;-68
2023/06/24 08:25:10;;;;;;;9.90;8.70;;;;;;;19.95;78.21;100301.66;218161;1254;140139;-68
2023/06/24 08:30:15;;;;;;;7.10;6.40;;;;;;;20.08;77.73;100311.36;218144;1254;139637;-68
2023/06/24 08:35:20;;;;;;;9.80;8.40;;;;;;;20.16;77.27;100309.77;218491;1258;140709;-69
2023/06/24 08:40:24;;;;;;;8.10;6.70;;;;;;;20.35;77.28;100310.37;218146;1254;139629;-68
2023/06/24 08:45:28;;;;;;;7.40;6.60;;;;;;;20.64;77.23;100308.30;218659;1258;141698;-67
2023/06/24 08:50:40;;;;;;;9.50;6.40;;;;;;;20.96;76.85;100308.52;218375;1254;140471;-68
2023/06/24 08:55:46;;;;;;;8.80;6.30;;;;;;;21.23;75.92;100309.69;219336;1257;140501;-68
2023/06/24 09:00:52;;;;;;;9.60;7.70;;;;;;;21.38;75.12;100315.57;219503;1253;142293;-68
2023/06/24 09:05:58;;;;;;;5.80;5.30;;;;;;;21.55;74.93;100317.11;219254;1254;139523;-68
2023/06/24 09:11:04;;;;;;;6.30;5.70;;;;;;;21.71;73.91;100321.76;218703;1257;140404;-68
2023/06/24 09:16:14;;;;;;;4.80;3.40;;;;;;;21.89;72.68;100325.77;218437;1259;141616;-68
2023/06/24 09:21:36;;;;;;;8.20;5.30;;;;;;;21.95;71.75;100335.25;218542;1257;140158;-67
2023/06/24 09:26:46;;;;;;;4.80;4.40;;;;;;;22.03;71.11;100334.15;217909;1257;140158;-68
2023/06/24 09:31:52;;;;;;;4.70;4.30;;;;;;;22.15;69.95;100336.23;218645;1257;139500;-67
2023/06/24 09:36:58;;;;;;;5.10;4.60;;;;;;;22.14;69.10;100341.25;220710;1257;139810;-68
2023/06/24 09:42:01;;;;;;;3.80;3.50;;;;;;;22.23;68.89;100337.69;220601;1257;141783;-69
2023/06/24 09:47:05;;;;;;;4.90;4.40;;;;;;;22.32;67.85;100340.25;220516;1257;139783;-69
2023/06/24 09:52:15;;;;;;;6.10;4.40;;;;;;;22.35;67.53;100342.73;219907;1254;139794;-68
2023/06/24 09:57:30;;;;;;;4.90;3.90;;;;;;;22.41;67.19;100342.76;219418;1257;140318;-69
2023/06/24 10:02:34;;;;;;;6.20;4.60;;;;;;;22.49;66.87;100342.72;217827;1259;139388;-68
2023/06/24 10:07:39;;;;;;;5.80;5.10;;;;;;;22.50;66.59;100346.56;219723;1257;140079;-67
2023/06/24 10:12:44;;;;;;;4.30;3.80;;;;;;;22.51;66.07;100351.44;218159;1254;140330;-68
2023/06/24 10:17:51;;;;;;;5.60;5.00;;;;;;;22.44;65.79;100353.52;219978;1256;140336;-67
2023/06/24 10:23:14;;;;;;;10.20;4.80;;;;;;;22.44;65.35;100355.67;218432;1257;140664;-68
2023/06/24 10:28:19;;;;;;;5.10;4.60;;;;;;;22.28;64.52;100354.23;218653;1258;140530;-67
2023/06/24 10:33:24;;;;;;;8.70;5.50;;;;;;;22.04;64.60;100351.95;218149;1254;139079;-68
2023/06/24 10:38:29;;;;;;;5.90;5.30;;;;;;;21.87;64.79;100357.62;218053;1257;139008;-68
2023/06/24 10:43:39;;;;;;;6.90;6.10;;;;;;;21.67;65.02;100358.77;219084;1253;141909;-67
2023/06/24 10:48:44;;;;;;;5.70;5.20;;;;;;;21.52;65.30;100361.81;218298;1254;140498;-68
2023/06/24 10:53:47;;;;;;;6.60;5.50;;;;;;;21.38;65.72;100359.55;218545;1256;140992;-68
2023/06/24 10:58:57;;;;;;;6.90;6.10;;;;;;;21.33;66.52;100359.84;218248;1254;140959;-68
2023/06/24 11:04:06;;;;;;;6.50;5.20;;;;;;;21.32;67.11;100360.18;219932;1254;139886;-68
2023/06/24 11:09:13;;;;;;;6.10;5.50;;;;;;;21.24;67.71;100357.94;218271;1257;139781;-67
2023/06/24 11:14:23;;;;;;;6.80;5.80;;;;;;;21.20;67.99;100359.05;218062;1254;139560;-67
2023/06/24 11:19:30;;;;;;;11.70;6.70;;;;;;;21.08;68.07;100359.08;218687;1254;140079;-68
2023/06/24 11:24:35;;;;;;;7.10;6.40;;;;;;;20.95;68.01;100357.50;219063;1257;141953;-68
2023/06/24 11:29:38;;;;;;;8.20;6.00;;;;;;;20.79;68.29;100364.77;220442;1254;559523;-68
2023/06/24 11:34:42;;;;;;;10.00;6.00;;;;;;;20.59;68.22;100361.17;220489;1254;139764;-68
2023/06/24 11:40:04;;;;;;;8.20;6.00;;;;;;;20.36;68.41;100366.84;220716;1254;141715;-68
2023/06/24 11:45:12;;;;;;;8.20;7.00;;;;;;;20.11;68.86;100363.52;218465;1257;140847;-68
2023/06/24 11:50:27;;;;;;;6.70;5.90;;;;;;;19.94;69.57;100365.68;219386;1255;139862;-69
2023/06/24 11:55:33;;;;;;;6.10;4.70;;;;;;;19.84;70.29;100367.17;218090;1254;139868;-68
2023/06/24 12:00:46;;;;;;;10.80;6.70;;;;;;;19.69;70.84;100367.26;219849;1254;139955;-68
2023/06/24 12:05:50;;;;;;;6.60;5.90;;;;;;;19.68;71.52;100367.05;219644;1256;140044;-68
2023/06/24 12:10:55;;;;;;;8.40;5.90;;;;;;;19.75;71.98;100364.20;218423;1259;140901;-69
2023/06/24 12:16:00;;;;;;;8.30;6.10;;;;;;;19.81;72.57;100359.67;218931;1257;140317;-69
2023/06/24 12:21:05;;;;;;;5.70;5.30;;;;;;;19.97;72.80;100360.47;218520;1254;140017;-71
2023/06/24 12:26:11;;;;;;;6.10;5.50;;;;;;;20.01;73.07;100360.83;218459;1254;139977;-71
2023/06/24 12:31:16;;;;;;;7.90;7.10;;;;;;;20.19;73.72;100356.35;218757;1254;140811;-68
2023/06/24 12:36:24;;;;;;;8.10;7.20;;;;;;;20.34;73.56;100354.98;217928;1257;141058;-69
2023/06/24 12:41:30;;;;;;;7.80;7.00;;;;;;;20.57;73.66;100354.86;218785;1258;140016;-70
2023/06/24 12:46:35;;;;;;;9.10;7.30;;;;;;;20.71;73.28;100356.45;218093;1259;141356;-69
2023/06/24 12:51:39;;;;;;;8.80;6.80;;;;;;;20.79;72.99;100357.45;218890;1257;142219;-68
2023/06/24 12:56:44;;;;;;;12.00;6.70;;;;;;;20.87;72.82;100353.19;219070;1254;139587;-68
2023/06/24 13:01:49;;;;;;;6.90;6.10;;;;;;;21.01;72.85;100359.70;219516;1254;139589;-70
2023/06/24 13:06:54;;;;;;;6.30;5.80;;;;;;;21.08;72.50;100351.77;218293;1258;140892;-69
2023/06/24 13:11:59;;;;;;;10.60;5.60;;;;;;;21.21;72.76;100353.36;218464;1254;140022;-69
2023/06/24 13:17:04;;;;;;;7.20;6.50;;;;;;;21.38;72.54;100345.83;218658;1254;141539;-71
2023/06/24 13:22:11;;;;;;;6.80;6.10;;;;;;;21.41;72.26;100346.12;219664;1253;140830;-68
2023/06/24 13:27:16;;;;;;;8.20;6.50;;;;;;;21.41;71.75;100339.88;220913;1254;140206;-69
2023/06/24 13:32:20;;;;;;;7.90;7.20;;;;;;;21.57;71.71;100338.19;220633;1254;140803;-68
2023/06/24 13:37:25;;;;;;;6.90;6.30;;;;;;;21.71;71.34;100333.38;219514;1257;140448;-68
2023/06/24 13:42:29;;;;;;;6.90;6.20;;;;;;;21.69;70.41;100333.19;219440;1254;139624;-70
2023/06/24 13:47:37;;;;;;;8.40;6.40;;;;;;;21.73;70.78;100328.34;218235;1257;139874;-67
2023/06/24 13:52:42;;;;;;;6.50;5.50;;;;;;;21.90;70.78;100327.62;219381;1254;140781;-70
2023/06/24 13:57:49;;;;;;;8.40;6.60;;;;;;;22.01;70.19;100328.11;218624;1255;139569;-67
2023/06/24 14:02:53;;;;;;;7.80;5.60;;;;;;;22.06;69.79;100324.27;218560;1258;140500;-68
2023/06/24 14:07:58;;;;;;;6.20;5.60;;;;;;;22.13;69.53;100314.17;218913;1254;139966;-68
2023/06/24 14:13:05;;;;;;;8.50;6.50;;;;;;;22.17;68.99;100313.13;218357;1257;140933;-68
2023/06/24 14:18:10;;;;;;;6.30;5.70;;;;;;;22.29;68.54;100309.63;219155;1254;139892;-74
2023/06/24 14:23:16;;;;;;;7.80;5.30;;;;;;;22.51;68.21;100303.84;218768;1254;139987;-69
2023/06/24 14:28:21;;;;;;;8.20;6.10;;;;;;;22.65;67.57;100297.74;218110;1254;209836;-68
2023/06/24 14:33:26;;;;;;;6.80;5.30;;;;;;;22.98;67.15;100293.11;218468;1254;140248;-68
2023/06/24 14:38:32;;;;;;;;;;;;;;;23.17;65.83;100289.89;218062;1254;139804;-72
2023/06/24 14:43:41;;;;;;;6.50;5.90;;;;;;;23.12;65.73;100278.73;217921;1260;127184;-71
2023/06/24 14:48:54;;;;;;;5.90;5.30;;;;;;;23.27;65.85;100278.55;218440;1256;139592;-76
2023/06/24 14:54:01;;;;;;;6.50;5.90;;;;;;;23.35;65.08;100276.03;217754;1260;139958;-75
2023/06/24 14:59:12;;;;;;;7.00;5.60;;;;;;;23.42;64.89;100269.89;218333;1256;140939;-73
2023/06/24 15:04:17;;;;;;;7.40;5.60;;;;;;;23.48;64.56;100265.36;218836;1255;140901;-71
2023/06/24 15:09:27;;;;;;;8.10;5.80;;;;;;;23.53;64.03;100256.24;218563;1257;140575;-67
2023/06/24 15:14:31;;;;;;;5.80;5.10;;;;;;;23.48;63.56;100254.92;219778;1256;141361;-74
2023/06/24 15:19:36;;;;;;;10.20;5.20;;;;;;;23.42;63.30;100254.18;218727;1257;141429;-71
2023/06/24 15:24:44;;;;;;;9.00;5.80;;;;;;;23.43;63.10;100252.84;219034;1257;140335;-68
2023/06/24 15:29:52;;;;;;;7.40;5.80;;;;;;;23.44;62.94;100246.99;220515;1256;140187;-70
2023/06/24 15:34:57;;;;;;;6.70;5.50;;;;;;;23.44;62.64;100243.30;220481;1257;140178;-70
2023/06/24 15:40:09;;;;;;;5.90;5.40;;;;;;;23.45;62.47;100242.02;220642;1255;139227;-67
2023/06/24 15:45:16;;;;;;;6.30;5.70;;;;;;;23.54;62.36;100240.59;219125;1256;139576;-68
2023/06/24 15:50:22;;;;;;;;;;;;;;;23.63;62.44;100239.39;218241;1257;140544;-70
2023/06/24 15:55:30;;;;;;;6.40;5.60;;;;;;;23.55;62.11;100234.80;218123;1259;125459;-76
2023/06/24 16:00:39;;;;;;;6.10;5.50;;;;;;;23.49;61.89;100240.31;218205;1257;245484;-72
2023/06/24 16:05:44;;;;;;;7.20;6.50;;;;;;;23.33;61.95;100238.12;218099;1256;139192;-67
2023/06/24 16:10:48;;;;;;;6.30;5.80;;;;;;;23.30;62.16;100241.28;219109;1257;139663;-68
2023/06/24 16:15:56;;;;;;;8.10;6.30;;;;;;;23.08;61.65;100236.48;218269;1257;139100;-68
2023/06/24 16:21:04;;;;;;;5.80;5.20;;;;;;;22.82;61.97;100233.13;218576;1260;140194;-69
2023/06/24 16:26:08;;;;;;;9.40;6.00;;;;;;;22.69;62.34;100232.94;218025;1256;139028;-69
2023/06/24 16:31:14;;;;;;;5.80;5.20;;;;;;;22.61;63.19;100230.28;217502;1257;138888;-68
2023/06/24 16:36:21;;;;;;;7.10;6.50;;;;;;;22.43;63.31;100230.84;218281;1257;140261;-69
2023/06/24 16:41:27;;;;;;;6.70;6.10;;;;;;;22.35;63.63;100231.59;218224;1256;140135;-68
2023/06/24 16:46:41;;;;;;;5.70;5.20;;;;;;;22.43;63.89;100228.83;217567;1258;140700;-70
2023/06/24 16:51:46;;;;;;;8.60;5.30;;;;;;;22.47;63.75;100225.29;218366;1257;141771;-68
2023/06/24 16:56:55;;;;;;;6.80;5.90;;;;;;;22.43;63.54;100221.83;218604;1257;139938;-68
2023/06/24 17:02:00;;;;;;;7.00;5.90;;;;;;;22.43;64.02;100219.01;218560;1256;139720;-67
2023/06/24 17:07:07;;;;;;;7.10;6.40;;;;;;;22.40;64.35;100218.90;218711;1256;140237;-66
2023/06/24 17:12:11;;;;;;;8.70;7.00;;;;;;;22.34;64.84;100215.31;220093;1257;140241;-67
2023/06/24 17:17:19;;;;;;;12.40;7.30;;;;;;;22.25;64.83;100209.63;220489;1256;141187;-67
2023/06/24 17:22:25;;;;;;;8.10;6.70;;;;;;;22.11;65.08;100213.58;220475;1257;140391;-67
2023/06/24 17:27:30;;;;;;;12.40;8.60;;;;;;;22.05;65.17;100213.63;220194;1256;140014;-67
2023/06/24 17:32:37;;;;;;;10.80;7.20;;;;;;;22.01;65.46;100209.48;220299;1257;140605;-67
2023/06/24 17:37:44;;;;;;;10.40;7.70;;;;;;;21.99;65.75;100205.27;220104;1256;142199;-66
2023/06/24 17:42:49;;;;;;;12.90;7.50;;;;;;;21.94;65.97;100202.64;219858;1256;139969;-67
2023/06/24 17:47:55;;;;;;;;;;;;;;;21.86;66.20;100196.59;219172;1257;141100;-67
2023/06/24 17:53:04;;;;;;;7.20;6.50;;;;;;;21.69;66.37;100198.48;218709;1256;128346;-67
2023/06/24 17:58:10;;;;;;;9.10;6.80;;;;;;;21.54;66.76;100206.99;217659;1259;141197;-66
2023/06/24 18:03:16;;;;;;;11.00;7.50;;;;;;;21.33;67.06;100201.57;219542;1256;140044;-68
2023/06/24 18:08:25;;;;;;;9.70;6.30;;;;;;;21.14;67.56;100205.09;218643;1256;142588;-69
2023/06/24 18:13:30;;;;;;;10.20;8.20;;;;;;;20.98;67.93;100205.20;219360;1256;140567;-69
2023/06/24 18:18:34;;;;;;;8.40;7.10;;;;;;;20.90;68.44;100207.46;219206;1256;141680;-68
2023/06/24 18:23:44;;;;;;;9.20;8.10;;;;;;;20.81;68.68;100214.09;218956;1256;139915;-67
2023/06/24 18:28:49;;;;;;;9.00;7.80;;;;;;;20.69;69.02;100215.92;218927;1256;140500;-66
2023/06/24 18:33:57;;;;;;;9.80;9.00;;;;;;;20.50;69.38;100212.25;217578;1257;141157;-70
2023/06/24 18:39:03;;;;;;;10.20;9.00;;;;;;;20.26;69.76;100207.66;218891;1256;140212;-68
2023/06/24 18:44:09;;;;;;;11.20;8.40;;;;;;;20.08;70.26;100213.92;218132;1256;139895;-69
2023/06/24 18:49:15;;;;;;;9.30;8.20;;;;;;;19.96;70.69;100212.02;218394;1258;140367;-68
2023/06/24 18:54:26;;;;;;;11.00;8.20;;;;;;;19.87;71.02;100215.58;217842;1257;140845;-70
2023/06/24 18:59:30;;;;;;;14.70;8.20;;;;;;;19.76;71.36;100213.89;219792;1255;141416;-68
2023/06/24 19:04:33;;;;;;;8.70;7.80;;;;;;;19.62;71.46;100221.90;219649;1256;142534;-68
2023/06/24 19:09:38;;;;;;;10.10;7.60;;;;;;;19.50;71.87;100226.96;219248;1255;140683;-68
2023/06/24 19:14:45;;;;;;;13.10;8.30;;;;;;;19.38;71.99;100229.40;220587;1255;140060;-66
2023/06/24 19:19:51;;;;;;;13.20;8.60;;;;;;;19.30;72.36;100235.89;220825;1255;141347;-66
2023/06/24 19:24:56;;;;;;;8.60;7.70;;;;;;;19.13;72.50;100231.61;220021;1256;140631;-66
2023/06/24 19:30:01;;;;;;;12.00;9.30;;;;;;;18.98;72.87;100232.61;220605;1255;141232;-67
2023/06/24 19:35:07;;;;;;;12.70;8.90;;;;;;;18.84;73.21;100232.25;219709;1257;141531;-66
2023/06/24 19:40:16;;;;;;;12.00;8.10;;;;;;;18.75;73.48;100232.98;219768;1255;140877;-66
2023/06/24 19:45:23;;;;;;;11.80;9.30;;;;;;;18.63;73.78;100232.98;219574;1256;139808;-66
2023/06/24 19:50:27;;;;;;;9.90;9.00;;;;;;;18.57;73.87;100234.60;218589;1257;140231;-68
2023/06/24 19:55:32;;;;;;;11.90;9.00;;;;;;;18.50;73.99;100232.73;218528;1257;140730;-68
2023/06/24 20:00:37;;;;;;;9.10;8.30;;;;;;;18.41;74.17;100230.48;218046;1257;140211;-69
2023/06/24 20:05:46;;;;;;;9.60;8.70;;;;;;;18.27;74.12;100229.39;219211;1256;141125;-70
2023/06/24 20:10:51;;;;;;;9.70;8.80;;;;;;;18.12;74.15;100230.65;218295;1257;139262;-69
2023/06/24 20:15:55;;;;;;;10.20;9.20;;;;;;;17.96;74.09;100230.46;218697;1256;140858;-69
2023/06/24 20:21:00;;;;;;;8.70;7.20;;;;;;;17.83;74.53;100229.82;218433;1256;140286;-69
2023/06/24 20:26:07;;;;;;;12.00;10.50;;;;;;;17.68;74.36;100224.14;218838;1257;140600;-68
2023/06/24 20:31:13;;;;;;;10.40;7.70;;;;;;;17.48;74.68;100223.26;219191;1256;141164;-70
2023/06/24 20:36:19;;;;;;;11.40;10.30;;;;;;;17.34;74.89;100228.91;218050;1259;140257;-69
2023/06/24 20:41:27;;;;;;;10.70;8.20;;;;;;;17.23;74.99;100229.46;218490;1256;141193;-69
2023/06/24 20:46:32;;;;;;;10.60;9.50;;;;;;;17.11;75.01;100228.86;219101;1256;144861;-71
2023/06/24 20:51:39;;;;;;;10.40;9.40;;;;;;;17.01;75.31;100229.15;217900;1256;140404;-70
2023/06/24 20:56:44;;;;;;;10.50;9.10;;;;;;;16.89;75.25;100229.27;219508;1256;140635;-70
2023/06/24 21:01:49;;;;;;;11.10;9.10;;;;;;;16.77;75.41;100225.56;219257;1255;140436;-69
2023/06/24 21:06:54;;;;;;;17.00;11.00;;;;;;;16.66;75.72;100223.95;220601;1256;141041;-69
2023/06/24 21:11:59;;;;;;;11.50;9.90;;;;;;;16.56;75.69;100224.69;219398;1255;140297;-70
2023/06/24 21:17:03;;;;;;;13.50;10.90;;;;;;;16.44;75.66;100229.33;219386;1256;140739;-69
2023/06/24 21:22:07;;;;;;;9.80;9.00;;;;;;;16.32;76.04;100222.41;220339;1256;140891;-69
2023/06/24 21:27:11;;;;;;;10.50;8.50;;;;;;;16.18;76.32;100225.45;220471;1256;140281;-69
2023/06/24 21:32:15;;;;;;;11.10;10.00;;;;;;;16.09;76.45;100223.41;220547;1256;140414;-69
2023/06/24 21:37:19;;;;;;;15.40;10.60;;;;;;;16.05;77.02;100222.40;219074;1256;139704;-68
2023/06/24 21:42:24;;;;;;;18.90;10.80;;;;;;;16.03;77.38;100214.32;218985;1256;236745;-68
2023/06/24 21:47:28;;;;;;;10.20;9.10;;;;;;;16.02;77.90;100215.39;218216;1255;139844;-68
2023/06/24 21:52:33;;;;;;;15.10;10.50;;;;;;;16.04;78.50;100217.72;218260;1257;142316;-68
2023/06/24 21:57:37;;;;;;;10.70;9.20;;;;;;;16.07;79.02;100215.10;218299;1259;140703;-68
2023/06/24 22:02:41;;;;;;;13.10;10.80;;;;;;;16.08;79.26;100216.40;217707;1257;140406;-67
2023/06/24 22:07:48;;;;;;;12.40;10.80;;;;;;;16.10;79.58;100222.50;219051;1257;140496;-68
2023/06/24 22:12:56;;;;;;;11.80;10.60;;;;;;;16.08;79.83;100225.17;218563;1257;141864;-69
2023/06/24 22:18:00;;;;;;;11.10;10.10;;;;;;;16.06;79.88;100224.30;217940;1257;140953;-68
2023/06/24 22:23:08;;;;;;;11.70;10.50;;;;;;;16.03;79.99;100225.45;217867;1256;141040;-69
2023/06/24 22:28:13;;;;;;;13.30;10.90;;;;;;;15.97;79.94;100226.15;217857;1256;140559;-68
2023/06/24 22:33:18;;;;;;;12.30;10.00;;;;;;;15.89;80.02;100228.21;218401;1256;141612;-72
2023/06/24 22:38:21;;;;;;;10.70;9.60;;;;;;;15.75;80.07;100226.75;218157;1256;140142;-71
2023/06/24 22:43:26;;;;;;;12.40;10.10;;;;;;;15.67;80.34;100230.60;217955;1257;140939;-68
2023/06/24 22:48:30;;;;;;;13.50;11.20;;;;;;;15.61;80.33;100225.29;218212;1256;140556;-69
2023/06/24 22:53:34;;;;;;;14.80;11.40;;;;;;;15.55;80.59;100225.89;218409;1256;140106;-70
2023/06/24 22:58:37;;;;;;;12.20;10.30;;;;;;;15.47;80.53;100228.69;219084;1256;141609;-70
2023/06/24 23:03:41;;;;;;;12.30;11.00;;;;;;;15.39;80.58;100227.70;218082;1257;141429;-69